sensor_id;sensor_type;location;lat;lon;timestamp;P1;durP1;ratioP1;P2;durP2;ratioP2
7454;SDS011;3769;51.208;4.454;2024-01-06T00:02:22;12.1;;;9.7;;
7454;SDS011;3769;51.208;4.454;2024-01-06T00:07:22;11.7;;;10.5;;
7454;SDS011;3769;51.208;4.454;2024-01-06T00:12:22;12.7;;;10;;
7454;SDS011;3769;51.208;4.454;2024-01-06T00:17:22;12.4;;;9.6;;
7454;SDS011;3769;51.208;4.454;2024-01-06T00:22:22;11.3;;;10.1;;
7454;SDS011;3769;51.208;4.454;2024-01-06T00:27:22;14;;;10.5;;
7454;SDS011;3769;51.208;4.454;2024-01-06T00:32:22;11.9;;;10.8;;
7454;SDS011;3769;51.208;4.454;2024-01-06T00:37:22;14;;;11.4;;
7454;SDS011;3769;51.208;4.454;2024-01-06T00:42:22;15.2;;;11.5;;
7454;SDS011;3769;51.208;4.454;2024-01-06T00:47:22;14.2;;;11.9;;
7454;SDS011;3769;51.208;4.454;2024-01-06T00:52:22;13.6;;;12.3;;
7454;SDS011;3769;51.208;4.454;2024-01-06T00:57:22;16;;;13.1;;
7454;SDS011;3769;51.208;4.454;2024-01-06T01:02:22;15.4;;;13.8;;
7454;SDS011;3769;51.208;4.454;2024-01-06T01:07:23;16.2;;;14.5;;
7454;SDS011;3769;51.208;4.454;2024-01-06T01:12:23;22.1;;;15.9;;
7454;SDS011;3769;51.208;4.454;2024-01-06T01:17:22;20.3;;;17.2;;
7454;SDS011;3769;51.208;4.454;2024-01-06T01:22:22;19.4;;;17.5;;
7454;SDS011;3769;51.208;4.454;2024-01-06T01:27:22;20.3;;;16.5;;
7454;SDS011;3769;51.208;4.454;2024-01-06T01:32:22;20.1;;;17.6;;
7454;SDS011;3769;51.208;4.454;2024-01-06T01:37:22;22.9;;;18.6;;
7454;SDS011;3769;51.208;4.454;2024-01-06T01:42:22;24.4;;;19.6;;
7454;SDS011;3769;51.208;4.454;2024-01-06T01:47:22;27.1;;;20.5;;
7454;SDS011;3769;51.208;4.454;2024-01-06T01:52:22;30.2;;;21.1;;
7454;SDS011;3769;51.208;4.454;2024-01-06T01:57:23;26.8;;;19.4;;
7454;SDS011;3769;51.208;4.454;2024-01-06T02:02:22;25.5;;;19.5;;
7454;SDS011;3769;51.208;4.454;2024-01-06T02:07:22;28;;;20.5;;
7454;SDS011;3769;51.208;4.454;2024-01-06T02:12:22;24.9;;;20.3;;
7454;SDS011;3769;51.208;4.454;2024-01-06T02:17:22;25.2;;;19.9;;
7454;SDS011;3769;51.208;4.454;2024-01-06T02:22:22;31.2;;;20.2;;
7454;SDS011;3769;51.208;4.454;2024-01-06T02:27:22;29;;;20.5;;
7454;SDS011;3769;51.208;4.454;2024-01-06T02:32:22;27.3;;;19.6;;
7454;SDS011;3769;51.208;4.454;2024-01-06T02:37:22;26.4;;;18.8;;
7454;SDS011;3769;51.208;4.454;2024-01-06T02:42:22;26;;;19.4;;
7454;SDS011;3769;51.208;4.454;2024-01-06T02:47:22;28.9;;;19.5;;
7454;SDS011;3769;51.208;4.454;2024-01-06T02:52:22;26.7;;;19.4;;
7454;SDS011;3769;51.208;4.454;2024-01-06T02:57:22;25.4;;;20.6;;
7454;SDS011;3769;51.208;4.454;2024-01-06T03:02:22;28.2;;;20;;
7454;SDS011;3769;51.208;4.454;2024-01-06T03:07:22;27.1;;;20.5;;
7454;SDS011;3769;51.208;4.454;2024-01-06T03:12:22;26.9;;;19.7;;
7454;SDS011;3769;51.208;4.454;2024-01-06T03:17:22;26.8;;;20;;
7454;SDS011;3769;51.208;4.454;2024-01-06T03:22:22;27.8;;;20.2;;
7454;SDS011;3769;51.208;4.454;2024-01-06T03:27:22;23;;;18.9;;
7454;SDS011;3769;51.208;4.454;2024-01-06T03:32:22;25.6;;;19.8;;
7454;SDS011;3769;51.208;4.454;2024-01-06T03:37:22;25.5;;;19.2;;
7454;SDS011;3769;51.208;4.454;2024-01-06T03:42:22;25.6;;;19.6;;
7454;SDS011;3769;51.208;4.454;2024-01-06T03:47:22;24.4;;;18.7;;
7454;SDS011;3769;51.208;4.454;2024-01-06T03:52:22;21.8;;;17.8;;
7454;SDS011;3769;51.208;4.454;2024-01-06T03:57:22;22.5;;;18.2;;
7454;SDS011;3769;51.208;4.454;2024-01-06T04:02:22;22.4;;;17.4;;
7454;SDS011;3769;51.208;4.454;2024-01-06T04:07:22;21.2;;;17.6;;
7454;SDS011;3769;51.208;4.454;2024-01-06T04:12:22;19.7;;;17.6;;
7454;SDS011;3769;51.208;4.454;2024-01-06T04:17:22;21.3;;;16.7;;
7454;SDS011;3769;51.208;4.454;2024-01-06T04:22:22;19.3;;;17;;
7454;SDS011;3769;51.208;4.454;2024-01-06T04:27:22;21.1;;;16;;
7454;SDS011;3769;51.208;4.454;2024-01-06T04:32:22;17.6;;;15.7;;
7454;SDS011;3769;51.208;4.454;2024-01-06T04:37:22;20.9;;;17.2;;
7454;SDS011;3769;51.208;4.454;2024-01-06T04:42:22;19;;;17;;
7454;SDS011;3769;51.208;4.454;2024-01-06T04:47:22;22.9;;;16.2;;
7454;SDS011;3769;51.208;4.454;2024-01-06T04:52:22;18.7;;;15.5;;
7454;SDS011;3769;51.208;4.454;2024-01-06T04:57:22;16.7;;;14;;
7454;SDS011;3769;51.208;4.454;2024-01-06T05:02:22;15.1;;;13.4;;
7454;SDS011;3769;51.208;4.454;2024-01-06T05:07:22;17.3;;;13.8;;
7454;SDS011;3769;51.208;4.454;2024-01-06T05:12:22;15.3;;;13.8;;
7454;SDS011;3769;51.208;4.454;2024-01-06T05:17:22;14.8;;;13.4;;
7454;SDS011;3769;51.208;4.454;2024-01-06T05:22:22;14.8;;;13.5;;
7454;SDS011;3769;51.208;4.454;2024-01-06T05:27:22;14.3;;;13.1;;
7454;SDS011;3769;51.208;4.454;2024-01-06T05:32:22;14.1;;;12.7;;
7454;SDS011;3769;51.208;4.454;2024-01-06T05:37:22;14.6;;;13.4;;
7454;SDS011;3769;51.208;4.454;2024-01-06T05:42:22;15.1;;;13.8;;
7454;SDS011;3769;51.208;4.454;2024-01-06T05:47:22;15.4;;;13.9;;
7454;SDS011;3769;51.208;4.454;2024-01-06T05:52:22;16.4;;;14.8;;
7454;SDS011;3769;51.208;4.454;2024-01-06T05:57:22;16.9;;;15.4;;
7454;SDS011;3769;51.208;4.454;2024-01-06T06:02:22;18.1;;;15;;
7454;SDS011;3769;51.208;4.454;2024-01-06T06:07:22;19.8;;;15.7;;
7454;SDS011;3769;51.208;4.454;2024-01-06T06:12:22;18;;;16.2;;
7454;SDS011;3769;51.208;4.454;2024-01-06T06:17:22;19.6;;;16.8;;
7454;SDS011;3769;51.208;4.454;2024-01-06T06:22:22;19;;;16.3;;
7454;SDS011;3769;51.208;4.454;2024-01-06T06:27:22;17.6;;;15.6;;
7454;SDS011;3769;51.208;4.454;2024-01-06T06:32:22;18;;;16.2;;
7454;SDS011;3769;51.208;4.454;2024-01-06T06:37:22;22.3;;;16.5;;
7454;SDS011;3769;51.208;4.454;2024-01-06T06:42:22;16.6;;;15;;
7454;SDS011;3769;51.208;4.454;2024-01-06T06:47:22;15;;;13.7;;
7454;SDS011;3769;51.208;4.454;2024-01-06T06:52:22;15.9;;;14.2;;
7454;SDS011;3769;51.208;4.454;2024-01-06T06:57:22;14.6;;;13.4;;
7454;SDS011;3769;51.208;4.454;2024-01-06T07:02:22;15.5;;;14;;
7454;SDS011;3769;51.208;4.454;2024-01-06T07:07:22;15.3;;;13.8;;
7454;SDS011;3769;51.208;4.454;2024-01-06T07:12:22;14.5;;;13.3;;
7454;SDS011;3769;51.208;4.454;2024-01-06T07:17:22;15.3;;;13.9;;
7454;SDS011;3769;51.208;4.454;2024-01-06T07:22:22;14.1;;;12.9;;
7454;SDS011;3769;51.208;4.454;2024-01-06T07:27:22;15.7;;;14.1;;
7454;SDS011;3769;51.208;4.454;2024-01-06T07:32:22;15.7;;;14;;
7454;SDS011;3769;51.208;4.454;2024-01-06T07:37:22;16.9;;;15.1;;
7454;SDS011;3769;51.208;4.454;2024-01-06T07:42:22;16.1;;;14.4;;
7454;SDS011;3769;51.208;4.454;2024-01-06T07:47:22;15;;;13.6;;
7454;SDS011;3769;51.208;4.454;2024-01-06T07:52:22;15.2;;;13.7;;
7454;SDS011;3769;51.208;4.454;2024-01-06T07:57:22;15.7;;;14.1;;
7454;SDS011;3769;51.208;4.454;2024-01-06T08:02:22;15.2;;;13.8;;
7454;SDS011;3769;51.208;4.454;2024-01-06T08:07:22;16.5;;;14.4;;
7454;SDS011;3769;51.208;4.454;2024-01-06T08:12:22;15.3;;;13.8;;
7454;SDS011;3769;51.208;4.454;2024-01-06T08:17:22;16.2;;;14.6;;
7454;SDS011;3769;51.208;4.454;2024-01-06T08:22:22;13.4;;;12.2;;
7454;SDS011;3769;51.208;4.454;2024-01-06T08:27:22;14.5;;;13.1;;
7454;SDS011;3769;51.208;4.454;2024-01-06T08:32:22;15.1;;;13.9;;
7454;SDS011;3769;51.208;4.454;2024-01-06T08:37:22;14.5;;;13.1;;
7454;SDS011;3769;51.208;4.454;2024-01-06T08:42:22;13.9;;;12.5;;
7454;SDS011;3769;51.208;4.454;2024-01-06T08:47:22;13.5;;;12.4;;
7454;SDS011;3769;51.208;4.454;2024-01-06T08:52:22;12.6;;;11.6;;
7454;SDS011;3769;51.208;4.454;2024-01-06T08:57:22;12.9;;;11.7;;
7454;SDS011;3769;51.208;4.454;2024-01-06T09:02:22;12.3;;;11.3;;
7454;SDS011;3769;51.208;4.454;2024-01-06T09:07:22;12.5;;;11.3;;
7454;SDS011;3769;51.208;4.454;2024-01-06T09:12:22;12.7;;;11.8;;
7454;SDS011;3769;51.208;4.454;2024-01-06T09:17:22;13;;;11.9;;
7454;SDS011;3769;51.208;4.454;2024-01-06T09:22:22;12.3;;;11.3;;
7454;SDS011;3769;51.208;4.454;2024-01-06T09:27:22;12.5;;;11.4;;
7454;SDS011;3769;51.208;4.454;2024-01-06T09:32:22;12.4;;;11.3;;
7454;SDS011;3769;51.208;4.454;2024-01-06T09:37:22;12.4;;;11.3;;
7454;SDS011;3769;51.208;4.454;2024-01-06T09:42:22;12.5;;;11.5;;
7454;SDS011;3769;51.208;4.454;2024-01-06T09:47:22;13;;;12;;
7454;SDS011;3769;51.208;4.454;2024-01-06T09:52:22;13.8;;;12.6;;
7454;SDS011;3769;51.208;4.454;2024-01-06T09:57:22;14.8;;;13.6;;
7454;SDS011;3769;51.208;4.454;2024-01-06T10:02:22;14.9;;;13.6;;
7454;SDS011;3769;51.208;4.454;2024-01-06T10:07:22;16.7;;;15.3;;
7454;SDS011;3769;51.208;4.454;2024-01-06T10:12:24;14.6;;;13.4;;
7454;SDS011;3769;51.208;4.454;2024-01-06T10:17:22;15.8;;;14.4;;
7454;SDS011;3769;51.208;4.454;2024-01-06T10:22:22;16.9;;;15.4;;
7454;SDS011;3769;51.208;4.454;2024-01-06T10:27:22;15;;;13.9;;
7454;SDS011;3769;51.208;4.454;2024-01-06T10:32:22;14.4;;;13.3;;
7454;SDS011;3769;51.208;4.454;2024-01-06T10:37:23;15.7;;;14.5;;
7454;SDS011;3769;51.208;4.454;2024-01-06T10:42:22;14.8;;;13.8;;
7454;SDS011;3769;51.208;4.454;2024-01-06T10:47:22;18.5;;;16.8;;
7454;SDS011;3769;51.208;4.454;2024-01-06T10:52:22;15.7;;;14.5;;
7454;SDS011;3769;51.208;4.454;2024-01-06T10:57:22;15.5;;;14.3;;
7454;SDS011;3769;51.208;4.454;2024-01-06T11:02:22;15;;;13.8;;
7454;SDS011;3769;51.208;4.454;2024-01-06T11:07:23;16.5;;;15.1;;
7454;SDS011;3769;51.208;4.454;2024-01-06T11:12:22;16.9;;;15.4;;
7454;SDS011;3769;51.208;4.454;2024-01-06T11:17:54;16.2;;;14.8;;
7454;SDS011;3769;51.208;4.454;2024-01-06T11:22:23;15.2;;;14;;
7454;SDS011;3769;51.208;4.454;2024-01-06T11:27:24;18.4;;;16.6;;
7454;SDS011;3769;51.208;4.454;2024-01-06T11:32:28;18.2;;;16.4;;
7454;SDS011;3769;51.208;4.454;2024-01-06T11:37:25;17.1;;;15.4;;
7454;SDS011;3769;51.208;4.454;2024-01-06T11:42:22;23.5;;;16.3;;
7454;SDS011;3769;51.208;4.454;2024-01-06T11:47:22;19;;;15.4;;
7454;SDS011;3769;51.208;4.454;2024-01-06T11:52:22;22.6;;;20.3;;
7454;SDS011;3769;51.208;4.454;2024-01-06T11:57:22;15.2;;;13.8;;
7454;SDS011;3769;51.208;4.454;2024-01-06T12:02:22;15.9;;;14.5;;
7454;SDS011;3769;51.208;4.454;2024-01-06T12:07:22;15.8;;;14.5;;
7454;SDS011;3769;51.208;4.454;2024-01-06T12:12:22;14.8;;;13.6;;
7454;SDS011;3769;51.208;4.454;2024-01-06T12:17:22;13;;;11.8;;
7454;SDS011;3769;51.208;4.454;2024-01-06T12:22:22;14.4;;;13.4;;
7454;SDS011;3769;51.208;4.454;2024-01-06T12:27:24;13.9;;;12.8;;
7454;SDS011;3769;51.208;4.454;2024-01-06T12:32:22;14;;;13;;
7454;SDS011;3769;51.208;4.454;2024-01-06T12:37:22;12;;;11.1;;
7454;SDS011;3769;51.208;4.454;2024-01-06T12:42:22;11.8;;;10.9;;
7454;SDS011;3769;51.208;4.454;2024-01-06T12:47:22;11.3;;;10.5;;
7454;SDS011;3769;51.208;4.454;2024-01-06T12:52:22;12.9;;;11.9;;
7454;SDS011;3769;51.208;4.454;2024-01-06T12:57:22;13.3;;;12.2;;
7454;SDS011;3769;51.208;4.454;2024-01-06T13:02:22;12.7;;;11.6;;
7454;SDS011;3769;51.208;4.454;2024-01-06T13:07:22;12;;;11.1;;
7454;SDS011;3769;51.208;4.454;2024-01-06T13:12:22;12.1;;;11.2;;
7454;SDS011;3769;51.208;4.454;2024-01-06T13:17:22;12.3;;;11.2;;
7454;SDS011;3769;51.208;4.454;2024-01-06T13:22:22;13.6;;;12.2;;
7454;SDS011;3769;51.208;4.454;2024-01-06T13:27:22;12.4;;;11.3;;
7454;SDS011;3769;51.208;4.454;2024-01-06T13:32:22;13.3;;;12.2;;
7454;SDS011;3769;51.208;4.454;2024-01-06T13:37:22;12.5;;;11.5;;
7454;SDS011;3769;51.208;4.454;2024-01-06T13:42:22;13.4;;;12.1;;
7454;SDS011;3769;51.208;4.454;2024-01-06T13:47:22;12.8;;;10.4;;
7454;SDS011;3769;51.208;4.454;2024-01-06T13:52:22;11.3;;;10.5;;
7454;SDS011;3769;51.208;4.454;2024-01-06T13:57:22;11.8;;;10.8;;
7454;SDS011;3769;51.208;4.454;2024-01-06T14:02:22;11.3;;;10.4;;
7454;SDS011;3769;51.208;4.454;2024-01-06T14:07:22;11.8;;;10.8;;
7454;SDS011;3769;51.208;4.454;2024-01-06T14:12:22;12.1;;;11.2;;
7454;SDS011;3769;51.208;4.454;2024-01-06T14:17:22;12.2;;;11.2;;
7454;SDS011;3769;51.208;4.454;2024-01-06T14:22:22;12.9;;;11.8;;
7454;SDS011;3769;51.208;4.454;2024-01-06T14:27:22;12.8;;;11.9;;
7454;SDS011;3769;51.208;4.454;2024-01-06T14:32:22;12.5;;;11.5;;
7454;SDS011;3769;51.208;4.454;2024-01-06T14:37:22;11.9;;;10.7;;
7454;SDS011;3769;51.208;4.454;2024-01-06T14:42:22;10.4;;;9.7;;
7454;SDS011;3769;51.208;4.454;2024-01-06T14:47:22;10.6;;;9.9;;
7454;SDS011;3769;51.208;4.454;2024-01-06T14:52:22;10.8;;;9.9;;
7454;SDS011;3769;51.208;4.454;2024-01-06T14:57:22;14.7;;;13.3;;
7454;SDS011;3769;51.208;4.454;2024-01-06T15:02:22;13.1;;;12.2;;
7454;SDS011;3769;51.208;4.454;2024-01-06T15:07:23;13.1;;;12.1;;
7454;SDS011;3769;51.208;4.454;2024-01-06T15:12:22;11.5;;;10.8;;
7454;SDS011;3769;51.208;4.454;2024-01-06T15:17:22;11.9;;;11.1;;
7454;SDS011;3769;51.208;4.454;2024-01-06T15:22:22;13.1;;;12.3;;
7454;SDS011;3769;51.208;4.454;2024-01-06T15:27:22;15.3;;;14.3;;
7454;SDS011;3769;51.208;4.454;2024-01-06T15:32:22;15.3;;;14.3;;
7454;SDS011;3769;51.208;4.454;2024-01-06T15:37:22;16.2;;;15.2;;
7454;SDS011;3769;51.208;4.454;2024-01-06T15:42:22;16.2;;;15.1;;
7454;SDS011;3769;51.208;4.454;2024-01-06T15:47:22;15.7;;;14.5;;
7454;SDS011;3769;51.208;4.454;2024-01-06T15:52:22;14.7;;;13.7;;
7454;SDS011;3769;51.208;4.454;2024-01-06T15:57:22;16.2;;;15;;
7454;SDS011;3769;51.208;4.454;2024-01-06T16:02:22;16.6;;;15.4;;
7454;SDS011;3769;51.208;4.454;2024-01-06T16:07:22;15;;;14.1;;
7454;SDS011;3769;51.208;4.454;2024-01-06T16:12:23;14.3;;;13.4;;
7454;SDS011;3769;51.208;4.454;2024-01-06T16:17:22;14.2;;;13.4;;
7454;SDS011;3769;51.208;4.454;2024-01-06T16:22:22;13.5;;;12.8;;
7454;SDS011;3769;51.208;4.454;2024-01-06T16:27:22;15.2;;;14.2;;
7454;SDS011;3769;51.208;4.454;2024-01-06T16:32:22;17.2;;;15.9;;
7454;SDS011;3769;51.208;4.454;2024-01-06T16:37:22;17.5;;;16.3;;
7454;SDS011;3769;51.208;4.454;2024-01-06T16:42:22;16.4;;;15.3;;
7454;SDS011;3769;51.208;4.454;2024-01-06T16:47:22;16.6;;;15.5;;
7454;SDS011;3769;51.208;4.454;2024-01-06T16:52:22;15.9;;;14.6;;
7454;SDS011;3769;51.208;4.454;2024-01-06T16:57:22;15.6;;;14.5;;
7454;SDS011;3769;51.208;4.454;2024-01-06T17:02:22;13.2;;;12.5;;
7454;SDS011;3769;51.208;4.454;2024-01-06T17:07:22;14.9;;;14;;
7454;SDS011;3769;51.208;4.454;2024-01-06T17:12:22;13.5;;;12.7;;
7454;SDS011;3769;51.208;4.454;2024-01-06T17:17:22;13.6;;;12.7;;
7454;SDS011;3769;51.208;4.454;2024-01-06T17:22:22;11.4;;;10.5;;
7454;SDS011;3769;51.208;4.454;2024-01-06T17:27:22;12;;;11.2;;
7454;SDS011;3769;51.208;4.454;2024-01-06T17:32:22;14.1;;;12.8;;
7454;SDS011;3769;51.208;4.454;2024-01-06T17:37:22;14.6;;;13.2;;
7454;SDS011;3769;51.208;4.454;2024-01-06T17:42:22;12.5;;;11.4;;
7454;SDS011;3769;51.208;4.454;2024-01-06T17:47:22;12.1;;;11.1;;
7454;SDS011;3769;51.208;4.454;2024-01-06T17:52:22;14.9;;;13.5;;
7454;SDS011;3769;51.208;4.454;2024-01-06T17:57:22;14.7;;;13.4;;
7454;SDS011;3769;51.208;4.454;2024-01-06T18:02:22;13.4;;;12.5;;
7454;SDS011;3769;51.208;4.454;2024-01-06T18:07:22;14.6;;;13.4;;
7454;SDS011;3769;51.208;4.454;2024-01-06T18:12:22;14.4;;;13.3;;
7454;SDS011;3769;51.208;4.454;2024-01-06T18:17:22;13.5;;;12.5;;
7454;SDS011;3769;51.208;4.454;2024-01-06T18:22:22;12.9;;;12;;
7454;SDS011;3769;51.208;4.454;2024-01-06T18:27:22;17.5;;;16.3;;
7454;SDS011;3769;51.208;4.454;2024-01-06T18:32:22;13.6;;;12.7;;
7454;SDS011;3769;51.208;4.454;2024-01-06T18:37:22;13;;;12;;
7454;SDS011;3769;51.208;4.454;2024-01-06T18:42:22;13.9;;;12.6;;
7454;SDS011;3769;51.208;4.454;2024-01-06T18:47:22;15.9;;;14.2;;
7454;SDS011;3769;51.208;4.454;2024-01-06T18:52:22;18;;;16.6;;
7454;SDS011;3769;51.208;4.454;2024-01-06T18:57:23;14.4;;;13.3;;
7454;SDS011;3769;51.208;4.454;2024-01-06T19:02:22;14.2;;;13.1;;
7454;SDS011;3769;51.208;4.454;2024-01-06T19:07:22;14.6;;;13.5;;
7454;SDS011;3769;51.208;4.454;2024-01-06T19:12:22;14.1;;;12.9;;
7454;SDS011;3769;51.208;4.454;2024-01-06T19:17:22;14.7;;;13.5;;
7454;SDS011;3769;51.208;4.454;2024-01-06T19:22:22;18.1;;;15.2;;
7454;SDS011;3769;51.208;4.454;2024-01-06T19:27:22;38;;;20.5;;
7454;SDS011;3769;51.208;4.454;2024-01-06T19:32:22;46;;;22.3;;
7454;SDS011;3769;51.208;4.454;2024-01-06T19:37:22;27.4;;;19.4;;
7454;SDS011;3769;51.208;4.454;2024-01-06T19:42:22;23.6;;;19.7;;
7454;SDS011;3769;51.208;4.454;2024-01-06T19:47:22;18.3;;;16.9;;
7454;SDS011;3769;51.208;4.454;2024-01-06T19:52:22;17.6;;;15.9;;
7454;SDS011;3769;51.208;4.454;2024-01-06T19:57:22;17.7;;;15.9;;
7454;SDS011;3769;51.208;4.454;2024-01-06T20:02:22;17.5;;;15.9;;
7454;SDS011;3769;51.208;4.454;2024-01-06T20:07:22;17.4;;;15.8;;
7454;SDS011;3769;51.208;4.454;2024-01-06T20:12:22;17.1;;;15.5;;
7454;SDS011;3769;51.208;4.454;2024-01-06T20:17:22;16.9;;;15.5;;
7454;SDS011;3769;51.208;4.454;2024-01-06T20:22:22;15.6;;;14.3;;
7454;SDS011;3769;51.208;4.454;2024-01-06T20:27:22;17.1;;;15.6;;
7454;SDS011;3769;51.208;4.454;2024-01-06T20:32:22;17.2;;;15.6;;
7454;SDS011;3769;51.208;4.454;2024-01-06T20:37:22;17.3;;;16;;
7454;SDS011;3769;51.208;4.454;2024-01-06T20:42:22;17.4;;;16;;
7454;SDS011;3769;51.208;4.454;2024-01-06T20:47:22;17.8;;;16.2;;
7454;SDS011;3769;51.208;4.454;2024-01-06T20:52:22;19.6;;;18.2;;
7454;SDS011;3769;51.208;4.454;2024-01-06T20:57:22;13.5;;;12.4;;
7454;SDS011;3769;51.208;4.454;2024-01-06T21:02:22;15.9;;;14.6;;
7454;SDS011;3769;51.208;4.454;2024-01-06T21:07:22;19;;;17.5;;
7454;SDS011;3769;51.208;4.454;2024-01-06T21:12:22;18.7;;;17.3;;
7454;SDS011;3769;51.208;4.454;2024-01-06T21:17:22;20.2;;;18.4;;
7454;SDS011;3769;51.208;4.454;2024-01-06T21:22:22;19.8;;;18.3;;
7454;SDS011;3769;51.208;4.454;2024-01-06T21:27:22;19.9;;;18.1;;
7454;SDS011;3769;51.208;4.454;2024-01-06T21:32:22;19.2;;;17.8;;
7454;SDS011;3769;51.208;4.454;2024-01-06T21:37:22;18.7;;;17.3;;
7454;SDS011;3769;51.208;4.454;2024-01-06T21:42:22;20;;;18.3;;
7454;SDS011;3769;51.208;4.454;2024-01-06T21:47:22;20.4;;;18.7;;
7454;SDS011;3769;51.208;4.454;2024-01-06T21:52:22;23.1;;;20.6;;
7454;SDS011;3769;51.208;4.454;2024-01-06T21:57:22;21.1;;;19.2;;
7454;SDS011;3769;51.208;4.454;2024-01-06T22:02:22;21.3;;;19.4;;
7454;SDS011;3769;51.208;4.454;2024-01-06T22:07:22;22.2;;;20.6;;
7454;SDS011;3769;51.208;4.454;2024-01-06T22:12:22;20.5;;;19;;
7454;SDS011;3769;51.208;4.454;2024-01-06T22:17:22;22.3;;;20.5;;
7454;SDS011;3769;51.208;4.454;2024-01-06T22:22:22;21.8;;;20;;
7454;SDS011;3769;51.208;4.454;2024-01-06T22:27:22;20.8;;;19.1;;
7454;SDS011;3769;51.208;4.454;2024-01-06T22:32:22;20.8;;;18.9;;
7454;SDS011;3769;51.208;4.454;2024-01-06T22:37:22;22.2;;;20.4;;
7454;SDS011;3769;51.208;4.454;2024-01-06T22:42:22;22.2;;;20.4;;
7454;SDS011;3769;51.208;4.454;2024-01-06T22:47:22;20;;;18.3;;
7454;SDS011;3769;51.208;4.454;2024-01-06T22:52:22;20.6;;;19;;
7454;SDS011;3769;51.208;4.454;2024-01-06T22:57:22;20.8;;;19.2;;
7454;SDS011;3769;51.208;4.454;2024-01-06T23:02:22;21.7;;;19.9;;
7454;SDS011;3769;51.208;4.454;2024-01-06T23:07:22;21.5;;;19.5;;
7454;SDS011;3769;51.208;4.454;2024-01-06T23:12:22;21.1;;;19.3;;
7454;SDS011;3769;51.208;4.454;2024-01-06T23:17:22;20.1;;;18.5;;
7454;SDS011;3769;51.208;4.454;2024-01-06T23:22:22;20;;;18.5;;
7454;SDS011;3769;51.208;4.454;2024-01-06T23:27:22;20;;;18.4;;
7454;SDS011;3769;51.208;4.454;2024-01-06T23:32:22;19.3;;;17.8;;
7454;SDS011;3769;51.208;4.454;2024-01-06T23:37:22;19.6;;;18;;
7454;SDS011;3769;51.208;4.454;2024-01-06T23:42:22;17.9;;;16.4;;
7454;SDS011;3769;51.208;4.454;2024-01-06T23:47:22;17.7;;;16.1;;
7454;SDS011;3769;51.208;4.454;2024-01-06T23:52:22;18.2;;;16.8;;
7454;SDS011;3769;51.208;4.454;2024-01-06T23:57:22;21.3;;;19.8;;
